createdAt,value
2018-09-28T00:02:20.627Z,0.00
2018-09-28T00:03:20.553Z,0.00
2018-09-28T00:04:20.506Z,0.00
2018-09-28T00:05:20.400Z,0.00
2018-09-28T00:06:20.313Z,0.00
2018-09-28T00:07:20.242Z,0.00
2018-09-28T00:08:20.167Z,0.00
2018-09-28T00:09:21.096Z,0.00
2018-09-28T00:10:19.983Z,0.00
2018-09-28T00:11:19.915Z,0.00
2018-09-28T00:12:19.823Z,0.00
2018-09-28T00:13:19.752Z,0.00
2018-09-28T00:14:19.667Z,0.00
2018-09-28T00:15:20.609Z,0.00
2018-09-28T00:16:19.494Z,0.00
2018-09-28T00:19:01.638Z,0.00
2018-09-28T00:20:02.604Z,0.00
2018-09-28T00:21:01.501Z,0.00
2018-09-28T00:22:01.393Z,0.00
2018-09-28T00:23:01.299Z,0.00
2018-09-28T00:25:43.154Z,0.00
2018-09-28T00:28:25.133Z,0.00
2018-09-28T00:29:25.085Z,0.00
2018-09-28T00:30:25.001Z,0.00
2018-09-28T00:31:24.944Z,0.00
2018-09-28T00:32:24.814Z,0.00
2018-09-28T00:33:24.741Z,0.00
2018-09-28T00:34:24.657Z,0.00
2018-09-28T00:35:24.577Z,0.00
2018-09-28T00:36:24.507Z,0.00
2018-09-28T00:39:06.634Z,0.00
2018-09-28T00:40:06.564Z,0.00
2018-09-28T00:41:06.507Z,0.00
2018-09-28T00:42:06.397Z,0.00
2018-09-28T00:43:06.323Z,0.00
2018-09-28T00:44:06.248Z,0.00
2018-09-28T00:45:06.156Z,0.00
2018-09-28T00:46:06.107Z,0.00
2018-09-28T00:47:05.994Z,0.00
2018-09-28T00:48:05.923Z,0.00
2018-09-28T00:49:05.821Z,0.00
2018-09-28T00:51:47.660Z,0.00
2018-09-28T00:54:29.642Z,0.00
2018-09-28T00:57:11.678Z,0.00
2018-09-28T00:58:11.569Z,0.00
2018-09-28T00:59:11.503Z,0.00
2018-09-28T01:00:11.409Z,0.00
2018-09-28T01:01:11.315Z,0.00
2018-09-28T01:02:11.279Z,0.00
2018-09-28T01:03:11.157Z,0.00
2018-09-28T01:04:11.076Z,0.00
2018-09-28T01:05:10.989Z,0.00
2018-09-28T01:06:10.943Z,0.00
2018-09-28T01:07:10.850Z,0.00
2018-09-28T01:08:10.755Z,0.00
2018-09-28T01:09:10.772Z,0.00
2018-09-28T01:10:10.595Z,0.00
2018-09-28T01:11:10.509Z,0.00
2018-09-28T01:12:11.458Z,0.00
2018-09-28T01:13:10.353Z,0.00
2018-09-28T01:14:10.265Z,0.00
2018-09-28T01:15:10.176Z,0.00
2018-09-28T01:17:52.178Z,0.00
2018-09-28T01:19:13.050Z,0.00
2018-09-28T01:19:51.984Z,0.00
2018-09-28T01:20:51.916Z,0.00
2018-09-28T01:21:51.822Z,0.00
2018-09-28T01:22:51.884Z,0.00
2018-09-28T01:23:51.658Z,0.00
2018-09-28T01:24:51.593Z,0.00
2018-09-28T01:25:51.494Z,0.00
2018-09-28T01:26:51.430Z,0.00
2018-09-28T01:27:51.343Z,0.00
2018-09-28T01:28:51.282Z,0.00
2018-09-28T01:29:51.160Z,0.00
2018-09-28T01:30:51.109Z,0.00
2018-09-28T01:46:13.717Z,0.00
2018-09-28T01:47:13.596Z,0.00
2018-09-28T01:48:13.555Z,0.00
2018-09-28T01:49:13.466Z,0.00
2018-09-28T01:50:13.359Z,0.00
2018-09-28T01:51:13.267Z,0.00
2018-09-28T01:52:13.200Z,0.00
2018-09-28T01:53:13.111Z,0.00
2018-09-28T01:54:13.050Z,0.00
2018-09-28T01:55:12.946Z,0.00
2018-09-28T01:56:12.866Z,0.00
2018-09-28T01:57:12.772Z,0.00
2018-09-28T01:58:12.739Z,0.00
2018-09-28T01:59:12.640Z,0.00
2018-09-28T02:00:12.573Z,0.00
2018-09-28T02:01:12.494Z,0.00
2018-09-28T02:02:12.395Z,0.00
2018-09-28T02:03:12.346Z,0.00
2018-09-28T02:04:12.262Z,0.00
2018-09-28T02:05:12.159Z,0.00
2018-09-28T02:06:12.071Z,0.00
2018-09-28T02:07:11.980Z,0.00
2018-09-28T02:08:11.901Z,0.00
2018-09-28T02:09:11.835Z,0.00
2018-09-28T02:10:11.734Z,0.00
2018-09-28T02:11:11.697Z,0.00
2018-09-28T02:12:11.591Z,0.00
2018-09-28T02:13:11.497Z,0.00
2018-09-28T02:14:11.549Z,0.00
2018-09-28T02:15:11.327Z,0.00
2018-09-28T02:16:11.278Z,0.00
2018-09-28T02:17:11.163Z,0.00
2018-09-28T02:18:11.076Z,0.00
2018-09-28T02:19:11.038Z,0.00
2018-09-28T02:20:10.934Z,0.00
2018-09-28T02:21:10.831Z,0.00
2018-09-28T02:22:10.772Z,0.00
2018-09-28T02:23:10.670Z,0.00
2018-09-28T02:24:10.626Z,0.00
2018-09-28T02:25:10.502Z,0.00
2018-09-28T02:26:10.421Z,0.00
2018-09-28T02:27:10.341Z,0.00
2018-09-28T02:28:10.269Z,0.00
2018-09-28T02:29:10.232Z,0.00
2018-09-28T02:31:52.172Z,0.00
2018-09-28T02:32:52.118Z,0.00
2018-09-28T02:33:52.014Z,0.00
2018-09-28T02:34:51.988Z,0.00
2018-09-28T02:35:51.840Z,0.00
2018-09-28T02:36:51.796Z,0.00
2018-09-28T02:37:51.703Z,0.00
2018-09-28T02:38:51.606Z,0.00
2018-09-28T02:39:51.528Z,0.00
2018-09-28T02:40:51.544Z,0.00
2018-09-28T02:41:51.346Z,0.00
2018-09-28T02:42:51.270Z,0.00
2018-09-28T02:43:51.196Z,0.00
2018-09-28T02:44:51.154Z,0.00
2018-09-28T02:45:51.031Z,0.00
2018-09-28T02:48:33.170Z,0.00
2018-09-28T02:51:15.193Z,0.00
2018-09-28T02:52:15.103Z,0.00
2018-09-28T02:53:15.030Z,0.00
2018-09-28T02:54:14.945Z,0.00
2018-09-28T02:55:14.850Z,0.00
2018-09-28T02:56:14.802Z,0.00
2018-09-28T02:57:14.688Z,0.00
2018-09-28T02:58:14.623Z,0.00
2018-09-28T02:59:14.514Z,0.00
2018-09-28T03:00:14.466Z,0.00
2018-09-28T03:01:14.381Z,0.00
2018-09-28T03:02:14.274Z,0.00
2018-09-28T03:03:14.190Z,0.00
2018-09-28T03:04:14.121Z,0.00
2018-09-28T03:05:14.053Z,0.00
2018-09-28T03:06:14.050Z,0.00
2018-09-28T03:07:13.860Z,0.00
2018-09-28T03:08:13.790Z,0.00
2018-09-28T03:09:13.714Z,0.00
2018-09-28T03:10:13.662Z,0.00
2018-09-28T03:11:13.570Z,0.00
2018-09-28T03:12:13.480Z,0.00
2018-09-28T03:13:13.374Z,0.00
2018-09-28T03:14:13.294Z,0.00
2018-09-28T03:15:13.216Z,0.00
2018-09-28T03:16:13.179Z,0.00
2018-09-28T03:19:37.032Z,0.00
2018-09-28T03:20:36.952Z,0.00
2018-09-28T03:21:37.972Z,0.00
2018-09-28T03:22:36.787Z,0.00
2018-09-28T03:23:36.700Z,0.00
2018-09-28T03:24:36.608Z,0.00
2018-09-28T03:27:18.721Z,0.00
2018-09-28T03:28:18.612Z,0.00
2018-09-28T03:29:18.512Z,0.00
2018-09-28T03:30:18.438Z,0.00
2018-09-28T03:31:18.384Z,0.00
2018-09-28T03:32:18.316Z,0.00
2018-09-28T03:33:18.201Z,0.00
2018-09-28T03:34:18.136Z,0.00
2018-09-28T03:35:18.069Z,0.00
2018-09-28T03:36:17.955Z,0.00
2018-09-28T03:37:17.885Z,0.00
2018-09-28T03:39:59.690Z,0.00
2018-09-28T03:40:59.622Z,0.00
2018-09-28T03:41:59.546Z,0.00
2018-09-28T03:42:59.483Z,0.00
2018-09-28T03:55:40.254Z,0.00
2018-09-28T03:56:40.230Z,0.00
2018-09-28T03:57:40.071Z,0.00
2018-09-28T03:58:40.018Z,0.00
2018-09-28T03:59:39.916Z,0.00
2018-09-28T04:00:39.829Z,0.00
2018-09-28T04:01:39.726Z,0.00
2018-09-28T04:02:39.648Z,0.00
2018-09-28T04:03:39.583Z,0.00
2018-09-28T04:04:39.479Z,0.00
2018-09-28T04:05:39.397Z,0.00
2018-09-28T04:06:39.326Z,0.00
2018-09-28T04:09:21.205Z,0.00
2018-09-28T04:10:21.096Z,0.00
2018-09-28T04:11:21.013Z,0.00
2018-09-28T04:12:20.945Z,0.00
2018-09-28T04:13:20.842Z,0.00
2018-09-28T04:14:20.851Z,0.00
2018-09-28T04:15:20.682Z,0.00
2018-09-28T04:16:20.619Z,0.00
2018-09-28T04:17:20.660Z,0.00
2018-09-28T04:18:20.462Z,0.00
2018-09-28T04:19:20.376Z,0.00
2018-09-28T04:20:20.381Z,0.00
2018-09-28T04:21:20.193Z,0.00
2018-09-28T04:24:02.203Z,0.00
2018-09-28T04:26:44.184Z,0.00
2018-09-28T04:27:44.094Z,0.00
2018-09-28T04:28:44.028Z,0.00
2018-09-28T04:29:43.971Z,0.00
2018-09-28T04:30:43.848Z,0.00
2018-09-28T04:31:43.779Z,0.00
2018-09-28T04:32:43.689Z,0.00
2018-09-28T04:33:43.610Z,0.00
2018-09-28T04:34:43.560Z,0.00
2018-09-28T04:35:43.437Z,0.00
2018-09-28T04:36:43.366Z,0.00
2018-09-28T04:37:43.368Z,0.00
2018-09-28T04:38:43.200Z,0.00
2018-09-28T04:39:43.134Z,0.00
2018-09-28T04:40:43.117Z,0.00
2018-09-28T04:41:42.965Z,0.00
2018-09-28T04:42:42.864Z,0.00
2018-09-28T04:43:42.804Z,0.00
2018-09-28T04:44:42.720Z,0.00
2018-09-28T04:45:42.703Z,0.00
2018-09-28T04:46:42.563Z,0.00
2018-09-28T04:47:42.479Z,0.00
2018-09-28T04:48:42.382Z,0.00
2018-09-28T04:49:42.320Z,0.00
2018-09-28T04:50:42.228Z,0.00
2018-09-28T04:51:42.137Z,0.00
2018-09-28T04:52:42.056Z,0.00
2018-09-28T04:55:24.209Z,4.00
2018-09-28T04:58:06.183Z,4.00
2018-09-28T04:59:06.114Z,4.00
2018-09-28T05:00:06.177Z,0.00
2018-09-28T05:02:48.203Z,4.00
2018-09-28T05:03:48.110Z,4.00
2018-09-28T05:04:48.050Z,8.00
2018-09-28T05:05:47.981Z,8.00
2018-09-28T05:23:45.698Z,76.00
2018-09-28T05:24:45.501Z,88.00
2018-09-28T05:25:45.595Z,96.00
2018-09-28T05:26:45.351Z,92.00
2018-09-28T05:27:45.404Z,92.00
2018-09-28T05:28:45.239Z,92.00
2018-09-28T05:29:45.172Z,92.00
2018-09-28T05:30:45.485Z,96.00
2018-09-28T05:31:45.105Z,108.00
2018-09-28T05:32:45.031Z,120.00
2018-09-28T05:33:44.892Z,140.00
2018-09-28T05:34:44.694Z,164.00
2018-09-28T05:35:44.610Z,180.00
2018-09-28T05:36:44.533Z,184.00
2018-09-28T05:37:44.451Z,184.00
2018-09-28T05:38:44.368Z,184.00
2018-09-28T05:39:44.290Z,184.00
2018-09-28T05:40:44.198Z,192.00
2018-09-28T05:41:45.195Z,200.00
2018-09-28T05:42:44.360Z,204.00
2018-09-28T05:45:26.211Z,176.00
2018-09-28T05:46:26.224Z,176.00
2018-09-28T05:47:26.049Z,188.00
2018-09-28T05:48:25.995Z,200.00
2018-09-28T05:49:25.886Z,200.00
2018-09-28T05:52:07.752Z,216.00
2018-09-28T05:54:32.206Z,232.00
2018-09-28T05:55:32.128Z,240.00
2018-09-28T05:56:32.049Z,228.00
2018-09-28T05:57:31.993Z,208.00
2018-09-28T05:58:31.908Z,180.00
2018-09-28T05:59:31.817Z,164.00
2018-09-28T06:00:31.714Z,152.00
2018-09-28T06:01:31.643Z,140.00
2018-09-28T06:02:31.597Z,144.00
2018-09-28T06:03:32.507Z,160.00
2018-09-28T06:04:31.385Z,176.00
2018-09-28T06:05:31.370Z,196.00
2018-09-28T06:06:31.224Z,204.00
2018-09-28T06:07:31.195Z,200.00
2018-09-28T06:09:55.719Z,200.00
2018-09-28T06:12:49.739Z,264.00
2018-09-28T06:13:49.691Z,240.00
2018-09-28T06:14:49.571Z,220.00
2018-09-28T06:17:31.716Z,192.00
2018-09-28T06:18:31.675Z,184.00
2018-09-28T06:19:31.592Z,168.00
2018-09-28T06:20:31.508Z,196.00
2018-09-28T06:21:31.399Z,212.00
2018-09-28T06:24:13.278Z,220.00
2018-09-28T06:25:13.138Z,248.00
2018-09-28T06:26:13.064Z,304.00
2018-09-28T06:27:12.980Z,364.00
2018-09-28T06:28:12.914Z,448.00
2018-09-28T06:29:12.847Z,528.00
2018-09-28T06:30:12.765Z,556.00
2018-09-28T06:32:54.712Z,576.00
2018-09-28T06:33:55.658Z,588.00
2018-09-28T06:34:54.555Z,592.00
2018-09-28T06:35:54.528Z,616.00
2018-09-28T06:36:54.402Z,668.00
2018-09-28T06:37:54.405Z,740.00
2018-09-28T06:38:54.271Z,764.00
2018-09-28T06:39:54.164Z,768.00
2018-09-28T06:40:54.197Z,764.00
2018-09-28T06:41:54.056Z,744.00
2018-09-28T06:42:53.914Z,756.00
2018-09-28T06:45:35.749Z,600.00
2018-09-28T06:46:35.648Z,556.00
2018-09-28T06:47:35.576Z,548.00
2018-09-28T06:48:35.501Z,572.00
2018-09-28T06:49:35.439Z,512.00
2018-09-28T06:50:35.363Z,408.00
2018-09-28T06:51:35.249Z,340.00
2018-09-28T06:52:35.157Z,320.00
2018-09-28T06:53:35.077Z,368.00
2018-09-28T06:54:35.018Z,504.00
2018-09-28T06:55:34.929Z,648.00
2018-09-28T06:56:34.854Z,668.00
2018-09-28T06:57:34.755Z,588.00
2018-09-28T06:58:34.715Z,476.00
2018-09-28T06:59:34.634Z,452.00
2018-09-28T07:00:34.525Z,480.00
2018-09-28T07:01:34.585Z,524.00
2018-09-28T07:03:59.260Z,620.00
2018-09-28T07:13:57.580Z,680.00
2018-09-28T07:14:57.504Z,756.00
2018-09-28T07:15:57.391Z,908.00
2018-09-28T07:16:57.317Z,1076.00
2018-09-28T07:17:57.319Z,1128.00
2018-09-28T07:20:39.238Z,892.00
2018-09-28T07:21:39.153Z,892.00
2018-09-28T07:22:39.240Z,924.00
2018-09-28T07:26:22.249Z,1064.00
2018-09-28T07:27:22.143Z,1128.00
2018-09-28T07:28:22.072Z,1140.00
2018-09-28T07:29:22.025Z,1104.00
2018-09-28T07:30:23.000Z,1060.00
2018-09-28T07:31:21.821Z,1012.00
2018-09-28T07:34:03.730Z,920.00
2018-09-28T07:35:03.689Z,932.00
2018-09-28T07:36:03.656Z,936.00
2018-09-28T07:37:03.570Z,960.00
2018-09-28T07:38:03.402Z,988.00
2018-09-28T07:39:03.326Z,1128.00
2018-09-28T07:40:03.254Z,1336.00
2018-09-28T07:41:03.158Z,1564.00
2018-09-28T07:42:03.140Z,1664.00
2018-09-28T07:44:45.231Z,1444.00
2018-09-28T07:47:27.264Z,1600.00
2018-09-28T07:48:27.178Z,1524.00
2018-09-28T07:49:27.115Z,1416.00
2018-09-28T07:50:26.992Z,1324.00
2018-09-28T07:51:26.913Z,1200.00
2018-09-28T07:52:27.089Z,1068.00
2018-09-28T07:53:26.734Z,1032.00
2018-09-28T07:56:08.777Z,1088.00
2018-09-28T07:57:09.688Z,1112.00
2018-09-28T07:58:08.557Z,1164.00
2018-09-28T07:59:08.537Z,1160.00
2018-09-28T08:00:08.410Z,1144.00
2018-09-28T08:01:08.343Z,1060.00
2018-09-28T08:02:08.269Z,976.00
2018-09-28T08:03:08.178Z,872.00
2018-09-28T08:04:08.089Z,796.00
2018-09-28T08:05:08.013Z,796.00
2018-09-28T08:06:07.950Z,800.00
2018-09-28T08:07:08.905Z,860.00
2018-09-28T08:08:07.781Z,936.00
2018-09-28T08:09:07.682Z,1036.00
2018-09-28T08:10:07.605Z,1124.00
2018-09-28T08:11:07.549Z,1144.00
2018-09-28T08:12:07.438Z,1080.00
2018-09-28T08:13:07.378Z,1088.00
2018-09-28T08:14:07.280Z,1252.00
2018-09-28T08:16:49.236Z,1624.00
2018-09-28T08:17:49.189Z,1672.00
2018-09-28T08:18:49.113Z,1596.00
2018-09-28T08:19:49.007Z,1604.00
2018-09-28T08:20:48.915Z,1548.00
2018-09-28T08:21:48.833Z,1564.00
2018-09-28T08:22:48.782Z,1684.00
2018-09-28T08:23:48.699Z,1932.00
2018-09-28T08:24:48.698Z,2160.00
2018-09-28T08:25:48.623Z,2100.00
2018-09-28T08:26:48.421Z,2004.00
2018-09-28T08:27:48.378Z,1920.00
2018-09-28T08:28:48.299Z,1764.00
2018-09-28T08:29:48.182Z,1640.00
2018-09-28T08:30:48.103Z,1544.00
2018-09-28T08:33:30.263Z,2076.00
2018-09-28T08:34:31.173Z,2332.00
2018-09-28T08:35:30.148Z,2476.00
2018-09-28T08:36:30.119Z,2660.00
2018-09-28T08:37:29.927Z,2980.00
2018-09-28T08:40:11.752Z,2708.00
2018-09-28T08:41:11.672Z,2760.00
2018-09-28T08:42:11.586Z,2584.00
2018-09-28T08:44:53.766Z,2152.00
2018-09-28T08:47:35.745Z,2936.00
2018-09-28T08:50:17.761Z,3308.00
2018-09-28T08:51:17.671Z,3516.00
2018-09-28T08:52:17.576Z,3756.00
2018-09-28T08:53:17.524Z,3768.00
2018-09-28T08:54:17.443Z,3532.00
2018-09-28T08:55:17.358Z,3232.00
2018-09-28T08:56:17.265Z,2836.00
2018-09-28T08:57:17.180Z,2392.00
2018-09-28T08:58:17.099Z,2084.00
2018-09-28T08:59:17.031Z,2032.00
2018-09-28T09:00:16.953Z,2052.00
2018-09-28T09:02:59.248Z,1612.00
2018-09-28T09:05:41.279Z,1812.00
2018-09-28T09:06:41.183Z,1888.00
2018-09-28T09:07:41.084Z,1980.00
2018-09-28T09:08:41.006Z,1808.00
2018-09-28T09:09:40.917Z,1516.00
2018-09-28T09:10:40.879Z,1540.00
2018-09-28T09:11:40.773Z,1740.00
2018-09-28T09:12:40.683Z,1680.00
2018-09-28T09:13:40.594Z,1456.00
2018-09-28T09:14:40.525Z,1672.00
2018-09-28T09:15:40.523Z,2428.00
2018-09-28T09:18:22.775Z,2144.00
2018-09-28T09:21:04.971Z,1580.00
2018-09-28T09:22:04.682Z,1528.00
2018-09-28T09:23:04.586Z,1860.00
2018-09-28T09:24:04.596Z,2020.00
2018-09-28T09:25:04.465Z,2096.00
2018-09-28T09:26:04.384Z,2732.00
2018-09-28T09:27:04.263Z,3192.00
2018-09-28T09:29:46.264Z,1972.00
2018-09-28T09:30:47.208Z,2144.00
2018-09-28T09:31:46.183Z,2064.00
2018-09-28T09:32:46.018Z,2436.00
2018-09-28T09:33:45.937Z,2660.00
2018-09-28T09:34:45.973Z,2660.00
2018-09-28T09:35:45.807Z,2748.00
2018-09-28T09:36:45.727Z,2636.00
2018-09-28T09:37:45.635Z,2692.00
2018-09-28T09:40:27.798Z,2468.00
2018-09-28T09:41:28.713Z,2492.00
2018-09-28T09:42:27.607Z,2476.00
2018-09-28T09:45:09.749Z,2248.00
2018-09-28T09:46:09.684Z,2412.00
2018-09-28T09:47:09.610Z,2724.00
2018-09-28T09:49:51.770Z,3860.00
2018-09-28T09:50:51.698Z,4084.00
2018-09-28T09:51:51.617Z,4320.00
2018-09-28T09:52:51.514Z,4428.00
2018-09-28T09:53:51.438Z,4540.00
2018-09-28T09:54:51.365Z,4348.00
2018-09-28T09:55:51.282Z,4008.00
2018-09-28T09:56:51.221Z,3880.00
2018-09-28T09:57:51.188Z,3804.00
2018-09-28T10:00:33.290Z,4208.00
2018-09-28T10:01:33.187Z,4436.00
2018-09-28T10:02:33.117Z,4660.00
2018-09-28T10:03:33.024Z,5320.00
2018-09-28T10:04:32.951Z,5932.00
2018-09-28T10:05:32.871Z,6624.00
2018-09-28T10:06:32.798Z,7336.00
2018-09-28T10:07:32.738Z,8212.00
2018-09-28T10:08:32.628Z,9092.00
2018-09-28T10:09:32.624Z,9000.00
2018-09-28T10:10:32.476Z,8336.00
2018-09-28T10:11:32.377Z,8172.00
2018-09-28T10:12:32.516Z,8060.00
2018-09-28T10:13:32.315Z,8956.00
2018-09-28T10:14:32.138Z,9276.00
2018-09-28T10:15:32.077Z,8960.00
2018-09-28T10:16:32.100Z,7884.00
2018-09-28T10:17:31.930Z,7336.00
2018-09-28T10:18:31.838Z,6828.00
2018-09-28T10:19:31.760Z,6240.00
2018-09-28T10:20:31.651Z,6232.00
2018-09-28T10:21:31.567Z,6708.00
2018-09-28T10:22:31.492Z,6884.00
2018-09-28T10:23:31.466Z,6188.00
2018-09-28T10:24:31.324Z,5692.00
2018-09-28T10:25:31.261Z,5072.00
2018-09-28T10:26:31.169Z,4272.00
2018-09-28T10:27:31.113Z,3836.00
2018-09-28T10:28:31.070Z,3840.00
2018-09-28T10:29:30.934Z,4244.00
2018-09-28T10:30:30.847Z,4772.00
2018-09-28T10:31:30.784Z,4848.00
2018-09-28T10:32:30.700Z,4436.00
2018-09-28T10:33:30.749Z,3572.00
2018-09-28T10:34:30.546Z,2832.00
2018-09-28T10:35:30.467Z,2744.00
2018-09-28T10:36:30.463Z,2656.00
2018-09-28T10:37:30.305Z,2580.00
2018-09-28T10:38:30.252Z,2576.00
2018-09-28T10:39:30.175Z,2700.00
2018-09-28T10:40:30.110Z,2980.00
2018-09-28T10:43:12.275Z,3060.00
2018-09-28T10:44:12.250Z,2808.00
2018-09-28T10:45:12.183Z,2648.00
2018-09-28T10:46:12.045Z,2460.00
2018-09-28T10:47:11.956Z,2772.00
2018-09-28T10:48:11.878Z,2732.00
2018-09-28T10:49:11.819Z,2808.00
2018-09-28T10:50:11.745Z,3180.00
2018-09-28T10:51:11.672Z,3640.00
2018-09-28T10:53:53.807Z,4448.00
2018-09-28T10:54:53.742Z,4700.00
2018-09-28T10:55:53.614Z,4836.00
2018-09-28T10:58:35.852Z,3632.00
2018-09-28T10:59:35.725Z,3612.00
2018-09-28T11:00:35.634Z,3708.00
2018-09-28T11:01:35.547Z,3924.00
2018-09-28T11:02:35.465Z,4208.00
2018-09-28T11:05:17.317Z,4184.00
2018-09-28T11:06:17.214Z,4432.00
2018-09-28T11:07:17.117Z,3900.00
2018-09-28T11:08:17.282Z,3684.00
2018-09-28T11:09:17.048Z,3632.00
2018-09-28T11:11:58.828Z,2916.00
2018-09-28T11:12:58.696Z,2640.00
2018-09-28T11:13:58.620Z,2576.00
2018-09-28T11:14:58.565Z,2372.00
2018-09-28T11:15:58.463Z,2220.00
2018-09-28T11:16:58.388Z,2336.00
2018-09-28T11:17:58.304Z,2428.00
2018-09-28T11:18:58.282Z,2096.00
2018-09-28T11:19:58.196Z,1900.00
2018-09-28T11:20:58.066Z,1904.00
2018-09-28T11:21:57.978Z,2004.00
2018-09-28T11:24:40.299Z,2220.00
2018-09-28T11:25:41.305Z,2388.00
2018-09-28T11:26:40.144Z,2416.00
2018-09-28T11:29:22.287Z,2040.00
2018-09-28T11:30:23.238Z,2112.00
2018-09-28T11:31:22.130Z,2168.00
2018-09-28T11:34:04.280Z,1832.00
2018-09-28T11:35:04.212Z,1896.00
2018-09-28T11:36:04.162Z,1860.00
2018-09-28T11:37:04.071Z,1516.00
2018-09-28T11:38:03.970Z,1488.00
2018-09-28T11:39:03.889Z,1788.00
2018-09-28T11:40:03.805Z,1908.00
2018-09-28T11:41:03.749Z,2356.00
2018-09-28T11:42:03.634Z,2484.00
2018-09-28T11:43:03.669Z,2788.00
2018-09-28T11:44:03.480Z,3040.00
2018-09-28T11:46:45.969Z,3432.00
2018-09-28T11:49:27.796Z,3500.00
2018-09-28T11:50:27.880Z,3640.00
2018-09-28T11:51:27.723Z,3560.00
2018-09-28T11:52:27.586Z,3308.00
2018-09-28T11:53:27.634Z,2956.00
2018-09-28T11:54:27.407Z,2808.00
2018-09-28T11:55:27.309Z,2752.00
2018-09-28T11:56:27.265Z,2840.00
2018-09-28T11:57:27.212Z,3008.00
2018-09-28T11:58:27.072Z,3384.00
2018-09-28T11:59:26.987Z,3692.00
2018-09-28T12:02:09.312Z,4152.00
2018-09-28T12:03:09.341Z,5052.00
2018-09-28T12:04:09.127Z,6332.00
2018-09-28T12:05:09.096Z,7668.00
2018-09-28T12:06:09.187Z,8540.00
2018-09-28T12:07:08.940Z,8416.00
2018-09-28T12:08:08.811Z,8016.00
2018-09-28T12:09:08.968Z,7432.00
2018-09-28T12:10:08.659Z,7400.00
2018-09-28T12:11:09.600Z,8204.00
2018-09-28T12:12:08.507Z,8700.00
2018-09-28T12:13:08.411Z,9572.00
2018-09-28T12:14:08.321Z,9904.00
2018-09-28T12:15:08.296Z,9452.00
2018-09-28T12:16:08.185Z,9400.00
2018-09-28T12:17:08.079Z,8492.00
2018-09-28T12:18:08.030Z,8308.00
2018-09-28T12:19:07.933Z,8220.00
2018-09-28T12:20:07.838Z,8556.00
2018-09-28T12:21:07.813Z,8852.00
2018-09-28T12:22:07.692Z,9048.00
2018-09-28T12:23:07.622Z,8728.00
2018-09-28T12:24:07.554Z,9188.00
2018-09-28T12:25:07.452Z,9116.00
2018-09-28T12:26:07.395Z,9792.00
2018-09-28T12:27:07.309Z,10928.00
2018-09-28T12:28:07.245Z,13608.00
2018-09-28T12:29:07.128Z,12708.00
2018-09-28T12:30:07.066Z,12224.00
2018-09-28T12:31:07.002Z,11368.00
2018-09-28T12:32:06.906Z,8400.00
2018-09-28T12:33:06.850Z,7536.00
2018-09-28T12:34:06.727Z,7052.00
2018-09-28T12:35:06.644Z,6684.00
2018-09-28T12:36:06.584Z,6896.00
2018-09-28T12:37:06.541Z,7188.00
2018-09-28T12:38:06.390Z,7656.00
2018-09-28T12:39:06.336Z,7992.00
2018-09-28T12:40:06.315Z,8408.00
2018-09-28T12:41:06.159Z,8488.00
2018-09-28T12:42:06.106Z,8428.00
2018-09-28T12:43:06.004Z,8524.00
2018-09-28T12:44:05.994Z,9360.00
2018-09-28T12:45:05.947Z,9864.00
2018-09-28T12:46:05.764Z,9148.00
2018-09-28T12:47:05.707Z,9004.00
2018-09-28T12:48:05.593Z,8836.00
2018-09-28T12:49:05.521Z,8856.00
2018-09-28T12:50:05.434Z,8820.00
2018-09-28T12:51:05.370Z,8904.00
2018-09-28T12:52:05.295Z,9036.00
2018-09-28T12:53:05.220Z,9492.00
2018-09-28T12:54:05.119Z,9240.00
2018-09-28T12:55:05.042Z,9180.00
2018-09-28T12:56:04.965Z,8008.00
2018-09-28T12:57:04.898Z,7748.00
2018-09-28T12:58:04.825Z,7736.00
2018-09-28T13:00:46.905Z,7928.00
2018-09-28T13:01:46.747Z,7688.00
2018-09-28T13:02:46.755Z,7352.00
2018-09-28T13:03:46.602Z,6792.00
2018-09-28T13:04:46.484Z,6304.00
2018-09-28T13:05:46.489Z,6148.00
2018-09-28T13:06:46.400Z,6088.00
2018-09-28T13:07:46.294Z,6420.00
2018-09-28T13:08:46.300Z,6880.00
2018-09-28T13:09:46.089Z,7296.00
2018-09-28T13:10:46.026Z,7576.00
2018-09-28T13:11:45.959Z,7924.00
2018-09-28T13:12:45.964Z,8412.00
2018-09-28T13:13:45.826Z,7688.00
2018-09-28T13:14:45.754Z,7156.00
2018-09-28T13:15:47.625Z,6684.00
2018-09-28T13:16:45.544Z,6212.00
2018-09-28T13:19:27.843Z,7528.00
2018-09-28T13:20:27.855Z,8140.00
2018-09-28T13:21:27.719Z,8320.00
2018-09-28T13:22:27.595Z,8252.00
2018-09-28T13:23:27.512Z,8936.00
2018-09-28T13:24:27.554Z,9344.00
2018-09-28T13:25:27.339Z,9372.00
2018-09-28T13:26:27.382Z,9188.00
2018-09-28T13:27:27.171Z,8996.00
2018-09-28T13:28:27.114Z,8680.00
2018-09-28T13:29:27.058Z,7420.00
2018-09-28T13:30:27.064Z,7144.00
2018-09-28T13:31:26.871Z,7204.00
2018-09-28T13:32:26.873Z,6956.00
2018-09-28T13:33:26.729Z,6240.00
2018-09-28T13:34:26.638Z,7300.00
2018-09-28T13:35:26.529Z,8308.00
2018-09-28T13:36:26.525Z,8436.00
2018-09-28T13:37:26.374Z,8264.00
2018-09-28T13:38:26.339Z,8120.00
2018-09-28T13:39:26.239Z,7640.00
2018-09-28T13:40:26.153Z,7656.00
2018-09-28T13:41:26.083Z,7412.00
2018-09-28T13:44:08.392Z,6404.00
2018-09-28T13:45:08.265Z,6508.00
2018-09-28T13:46:08.312Z,6420.00
2018-09-28T13:47:08.091Z,6276.00
2018-09-28T13:48:08.018Z,6220.00
2018-09-28T13:49:07.951Z,5980.00
2018-09-28T13:50:07.894Z,5588.00
2018-09-28T13:51:07.773Z,5204.00
2018-09-28T13:52:07.760Z,4944.00
2018-09-28T13:53:07.620Z,4948.00
2018-09-28T13:54:07.553Z,5052.00
2018-09-28T13:55:08.482Z,5296.00
2018-09-28T13:56:07.374Z,5608.00
2018-09-28T13:57:07.278Z,5788.00
2018-09-28T13:58:07.256Z,5996.00
2018-09-28T13:59:07.144Z,6632.00
2018-09-28T14:00:07.283Z,7232.00
2018-09-28T14:01:07.994Z,7392.00
2018-09-28T14:02:06.889Z,7116.00
2018-09-28T14:03:06.958Z,6904.00
2018-09-28T14:04:06.730Z,6832.00
2018-09-28T14:05:06.662Z,7016.00
2018-09-28T14:06:06.732Z,7108.00
2018-09-28T14:07:06.634Z,7288.00
2018-09-28T14:08:06.416Z,7796.00
2018-09-28T14:09:06.335Z,7476.00
2018-09-28T14:10:06.278Z,6860.00
2018-09-28T14:11:07.215Z,6776.00
2018-09-28T14:12:06.097Z,6480.00
2018-09-28T14:13:06.025Z,6328.00
2018-09-28T14:14:05.928Z,6360.00
2018-09-28T14:15:05.869Z,6272.00
2018-09-28T14:16:05.843Z,5704.00
2018-09-28T14:18:47.905Z,5304.00
2018-09-28T14:19:47.772Z,5500.00
2018-09-28T14:20:47.781Z,5016.00
2018-09-28T14:21:47.611Z,4872.00
2018-09-28T14:22:47.618Z,5152.00
2018-09-28T14:23:47.445Z,5356.00
2018-09-28T14:24:47.415Z,5068.00
2018-09-28T14:25:47.279Z,5024.00
2018-09-28T14:26:47.311Z,4996.00
2018-09-28T14:27:47.161Z,4856.00
2018-09-28T14:28:47.100Z,4996.00
2018-09-28T14:29:46.975Z,5188.00
2018-09-28T14:30:46.975Z,4896.00
2018-09-28T14:31:46.847Z,4400.00
2018-09-28T14:32:46.838Z,3888.00
2018-09-28T14:33:46.741Z,3356.00
2018-09-28T14:34:46.688Z,3224.00
2018-09-28T14:35:46.481Z,3476.00
2018-09-28T14:36:46.481Z,4020.00
2018-09-28T14:37:46.333Z,4628.00
2018-09-28T14:38:46.267Z,5176.00
2018-09-28T14:39:46.175Z,5164.00
2018-09-28T14:40:46.160Z,4764.00
2018-09-28T14:41:46.040Z,4776.00
2018-09-28T14:47:18.381Z,3576.00
2018-09-28T14:48:18.315Z,3264.00
2018-09-28T14:49:18.219Z,3032.00
2018-09-28T14:50:18.122Z,2864.00
2018-09-28T14:51:18.029Z,2704.00
2018-09-28T14:52:18.993Z,2576.00
2018-09-28T14:53:17.853Z,2516.00
2018-09-28T14:54:17.866Z,2328.00
2018-09-28T14:55:17.696Z,2384.00
2018-09-28T14:56:17.702Z,2380.00
2018-09-28T14:57:17.585Z,2396.00
2018-09-28T14:59:59.895Z,2356.00
2018-09-28T15:00:59.978Z,2248.00
2018-09-28T15:01:59.703Z,2200.00
2018-09-28T15:02:59.708Z,2148.00
2018-09-28T15:03:59.524Z,2176.00
2018-09-28T15:06:41.399Z,2108.00
2018-09-28T15:07:41.498Z,2048.00
2018-09-28T15:08:41.276Z,2128.00
2018-09-28T15:11:23.348Z,2248.00
2018-09-28T15:12:44.416Z,2300.00
2018-09-28T15:13:23.226Z,2324.00
2018-09-28T15:16:05.374Z,2188.00
2018-09-28T15:17:05.326Z,2300.00
2018-09-28T15:18:05.230Z,2304.00
2018-09-28T15:19:05.109Z,2424.00
2018-09-28T15:20:05.032Z,2752.00
2018-09-28T15:21:04.964Z,2864.00
2018-09-28T15:22:04.876Z,3104.00
2018-09-28T15:23:04.840Z,3480.00
2018-09-28T15:24:04.745Z,3624.00
2018-09-28T15:25:04.634Z,3808.00
2018-09-28T15:26:04.554Z,3780.00
2018-09-28T15:27:04.471Z,3760.00
2018-09-28T15:28:04.459Z,3600.00
2018-09-28T15:29:04.311Z,3432.00